sensor_id;sensor_type;location;lat;lon;timestamp;P1;durP1;ratioP1;P2;durP2;ratioP2
71253;SDS011;59019;47.638;18.966;2023-07-31T00:02:14;7.18;;;3.00;;
71253;SDS011;59019;47.638;18.966;2023-07-31T00:04:40;5.73;;;2.90;;
71253;SDS011;59019;47.638;18.966;2023-07-31T00:07:05;4.83;;;2.80;;
71253;SDS011;59019;47.638;18.966;2023-07-31T00:09:32;6.47;;;2.97;;
71253;SDS011;59019;47.638;18.966;2023-07-31T00:11:58;6.07;;;2.97;;
71253;SDS011;59019;47.638;18.966;2023-07-31T00:14:24;6.43;;;2.80;;
71253;SDS011;59019;47.638;18.966;2023-07-31T00:16:49;6.90;;;3.03;;
71253;SDS011;59019;47.638;18.966;2023-07-31T00:19:15;5.50;;;3.10;;
71253;SDS011;59019;47.638;18.966;2023-07-31T00:21:40;6.50;;;3.00;;
71253;SDS011;59019;47.638;18.966;2023-07-31T00:24:06;6.40;;;3.10;;
71253;SDS011;59019;47.638;18.966;2023-07-31T00:26:31;5.67;;;2.93;;
71253;SDS011;59019;47.638;18.966;2023-07-31T00:28:57;5.05;;;3.03;;
71253;SDS011;59019;47.638;18.966;2023-07-31T00:31:26;5.60;;;2.67;;
71253;SDS011;59019;47.638;18.966;2023-07-31T00:33:52;6.65;;;2.90;;
71253;SDS011;59019;47.638;18.966;2023-07-31T00:36:17;6.37;;;3.20;;
71253;SDS011;59019;47.638;18.966;2023-07-31T00:38:43;7.23;;;3.37;;
71253;SDS011;59019;47.638;18.966;2023-07-31T00:41:09;6.00;;;3.25;;
71253;SDS011;59019;47.638;18.966;2023-07-31T00:43:34;6.47;;;3.70;;
71253;SDS011;59019;47.638;18.966;2023-07-31T00:46:00;6.07;;;3.70;;
71253;SDS011;59019;47.638;18.966;2023-07-31T00:48:25;6.60;;;3.97;;
71253;SDS011;59019;47.638;18.966;2023-07-31T00:50:51;6.50;;;4.00;;
71253;SDS011;59019;47.638;18.966;2023-07-31T00:53:17;7.37;;;4.17;;
71253;SDS011;59019;47.638;18.966;2023-07-31T00:55:43;5.95;;;4.22;;
71253;SDS011;59019;47.638;18.966;2023-07-31T00:58:09;7.60;;;4.30;;
71253;SDS011;59019;47.638;18.966;2023-07-31T01:00:35;7.03;;;4.13;;
71253;SDS011;59019;47.638;18.966;2023-07-31T01:03:00;6.87;;;4.13;;
71253;SDS011;59019;47.638;18.966;2023-07-31T01:06:15;6.63;;;3.90;;
71253;SDS011;59019;47.638;18.966;2023-07-31T01:08:41;6.55;;;4.03;;
71253;SDS011;59019;47.638;18.966;2023-07-31T01:12:06;7.75;;;4.32;;
71253;SDS011;59019;47.638;18.966;2023-07-31T01:14:13;6.22;;;3.75;;
71253;SDS011;59019;47.638;18.966;2023-07-31T01:16:39;6.47;;;3.70;;
71253;SDS011;59019;47.638;18.966;2023-07-31T01:19:07;7.47;;;3.65;;
71253;SDS011;59019;47.638;18.966;2023-07-31T01:26:45;5.70;;;3.70;;
71253;SDS011;59019;47.638;18.966;2023-07-31T01:31:50;7.00;;;4.10;;
71253;SDS011;59019;47.638;18.966;2023-07-31T01:34:19;6.43;;;3.70;;
71253;SDS011;59019;47.638;18.966;2023-07-31T01:36:47;7.05;;;3.00;;
71253;SDS011;59019;47.638;18.966;2023-07-31T01:39:13;5.40;;;3.10;;
71253;SDS011;59019;47.638;18.966;2023-07-31T01:41:40;6.07;;;3.00;;
71253;SDS011;59019;47.638;18.966;2023-07-31T01:44:06;5.65;;;3.05;;
71253;SDS011;59019;47.638;18.966;2023-07-31T01:46:32;7.70;;;3.10;;
71253;SDS011;59019;47.638;18.966;2023-07-31T01:48:57;6.57;;;3.03;;
71253;SDS011;59019;47.638;18.966;2023-07-31T01:51:23;5.77;;;3.67;;
71253;SDS011;59019;47.638;18.966;2023-07-31T01:53:49;5.10;;;3.13;;
71253;SDS011;59019;47.638;18.966;2023-07-31T01:56:14;5.33;;;3.20;;
71253;SDS011;59019;47.638;18.966;2023-07-31T01:58:40;4.97;;;2.80;;
71253;SDS011;59019;47.638;18.966;2023-07-31T02:01:05;4.90;;;2.97;;
71253;SDS011;59019;47.638;18.966;2023-07-31T02:03:31;5.07;;;2.53;;
71253;SDS011;59019;47.638;18.966;2023-07-31T02:05:56;5.03;;;2.70;;
71253;SDS011;59019;47.638;18.966;2023-07-31T02:08:22;5.70;;;2.70;;
71253;SDS011;59019;47.638;18.966;2023-07-31T02:10:47;5.65;;;2.80;;
71253;SDS011;59019;47.638;18.966;2023-07-31T02:13:13;5.10;;;2.80;;
71253;SDS011;59019;47.638;18.966;2023-07-31T02:15:38;4.60;;;2.50;;
71253;SDS011;59019;47.638;18.966;2023-07-31T02:18:04;5.90;;;3.03;;
71253;SDS011;59019;47.638;18.966;2023-07-31T02:20:29;6.87;;;3.10;;
71253;SDS011;59019;47.638;18.966;2023-07-31T02:22:55;5.50;;;3.30;;
71253;SDS011;59019;47.638;18.966;2023-07-31T02:25:20;7.25;;;3.53;;
71253;SDS011;59019;47.638;18.966;2023-07-31T02:27:46;7.90;;;3.70;;
71253;SDS011;59019;47.638;18.966;2023-07-31T02:30:11;6.90;;;4.30;;
71253;SDS011;59019;47.638;18.966;2023-07-31T02:32:37;7.17;;;4.30;;
71253;SDS011;59019;47.638;18.966;2023-07-31T02:35:02;9.20;;;4.60;;
71253;SDS011;59019;47.638;18.966;2023-07-31T02:37:28;6.22;;;3.83;;
71253;SDS011;59019;47.638;18.966;2023-07-31T02:39:54;6.00;;;3.50;;
71253;SDS011;59019;47.638;18.966;2023-07-31T02:42:20;5.93;;;3.60;;
71253;SDS011;59019;47.638;18.966;2023-07-31T02:44:45;7.77;;;4.43;;
71253;SDS011;59019;47.638;18.966;2023-07-31T02:47:11;6.97;;;3.87;;
71253;SDS011;59019;47.638;18.966;2023-07-31T02:49:36;8.50;;;4.30;;
71253;SDS011;59019;47.638;18.966;2023-07-31T02:52:02;7.87;;;4.60;;
71253;SDS011;59019;47.638;18.966;2023-07-31T02:54:28;7.72;;;4.75;;
71253;SDS011;59019;47.638;18.966;2023-07-31T02:56:55;7.30;;;5.07;;
71253;SDS011;59019;47.638;18.966;2023-07-31T02:59:21;10.35;;;5.03;;
71253;SDS011;59019;47.638;18.966;2023-07-31T03:01:46;7.73;;;4.77;;
71253;SDS011;59019;47.638;18.966;2023-07-31T03:04:12;9.47;;;4.43;;
71253;SDS011;59019;47.638;18.966;2023-07-31T03:06:37;7.82;;;4.90;;
71253;SDS011;59019;47.638;18.966;2023-07-31T03:09:03;7.57;;;4.90;;
71253;SDS011;59019;47.638;18.966;2023-07-31T03:11:28;6.87;;;4.97;;
71253;SDS011;59019;47.638;18.966;2023-07-31T03:13:54;8.53;;;5.30;;
71253;SDS011;59019;47.638;18.966;2023-07-31T03:16:19;7.45;;;5.22;;
71253;SDS011;59019;47.638;18.966;2023-07-31T03:18:45;8.00;;;5.32;;
71253;SDS011;59019;47.638;18.966;2023-07-31T03:21:10;9.13;;;5.60;;
71253;SDS011;59019;47.638;18.966;2023-07-31T03:23:37;7.80;;;5.32;;
71253;SDS011;59019;47.638;18.966;2023-07-31T03:26:05;8.23;;;4.53;;
71253;SDS011;59019;47.638;18.966;2023-07-31T03:28:32;7.20;;;4.47;;
71253;SDS011;59019;47.638;18.966;2023-07-31T03:30:58;8.17;;;4.43;;
71253;SDS011;59019;47.638;18.966;2023-07-31T03:33:27;6.72;;;4.10;;
71253;SDS011;59019;47.638;18.966;2023-07-31T03:35:52;7.50;;;4.40;;
71253;SDS011;59019;47.638;18.966;2023-07-31T03:38:18;8.10;;;4.23;;
71253;SDS011;59019;47.638;18.966;2023-07-31T03:40:44;7.35;;;4.03;;
71253;SDS011;59019;47.638;18.966;2023-07-31T03:43:10;6.78;;;3.92;;
71253;SDS011;59019;47.638;18.966;2023-07-31T03:45:36;7.68;;;3.90;;
71253;SDS011;59019;47.638;18.966;2023-07-31T03:48:02;6.27;;;3.30;;
71253;SDS011;59019;47.638;18.966;2023-07-31T03:50:28;6.55;;;3.58;;
71253;SDS011;59019;47.638;18.966;2023-07-31T03:52:54;6.05;;;3.50;;
71253;SDS011;59019;47.638;18.966;2023-07-31T03:55:19;5.60;;;3.20;;
71253;SDS011;59019;47.638;18.966;2023-07-31T03:57:46;6.33;;;3.47;;
71253;SDS011;59019;47.638;18.966;2023-07-31T04:00:12;7.35;;;3.20;;
71253;SDS011;59019;47.638;18.966;2023-07-31T04:02:38;5.78;;;3.28;;
71253;SDS011;59019;47.638;18.966;2023-07-31T04:05:03;6.97;;;3.47;;
71253;SDS011;59019;47.638;18.966;2023-07-31T04:07:29;4.97;;;2.93;;
71253;SDS011;59019;47.638;18.966;2023-07-31T04:09:54;5.97;;;2.67;;
71253;SDS011;59019;47.638;18.966;2023-07-31T04:12:20;7.38;;;2.97;;
71253;SDS011;59019;47.638;18.966;2023-07-31T04:14:45;6.13;;;3.07;;
71253;SDS011;59019;47.638;18.966;2023-07-31T04:17:11;7.73;;;2.80;;
71253;SDS011;59019;47.638;18.966;2023-07-31T04:19:36;6.13;;;2.50;;
71253;SDS011;59019;47.638;18.966;2023-07-31T04:22:03;5.20;;;2.30;;
71253;SDS011;59019;47.638;18.966;2023-07-31T04:24:29;5.05;;;2.40;;
71253;SDS011;59019;47.638;18.966;2023-07-31T04:26:54;4.90;;;2.50;;
71253;SDS011;59019;47.638;18.966;2023-07-31T04:29:19;5.10;;;2.53;;
71253;SDS011;59019;47.638;18.966;2023-07-31T04:31:45;5.50;;;2.60;;
71253;SDS011;59019;47.638;18.966;2023-07-31T04:34:11;5.30;;;2.63;;
71253;SDS011;59019;47.638;18.966;2023-07-31T04:36:39;5.68;;;2.65;;
71253;SDS011;59019;47.638;18.966;2023-07-31T04:39:04;5.80;;;2.60;;
71253;SDS011;59019;47.638;18.966;2023-07-31T04:41:30;6.30;;;2.80;;
71253;SDS011;59019;47.638;18.966;2023-07-31T04:43:55;6.25;;;2.78;;
71253;SDS011;59019;47.638;18.966;2023-07-31T04:46:21;6.03;;;2.93;;
71253;SDS011;59019;47.638;18.966;2023-07-31T04:48:46;6.83;;;2.70;;
71253;SDS011;59019;47.638;18.966;2023-07-31T04:51:12;5.30;;;2.80;;
71253;SDS011;59019;47.638;18.966;2023-07-31T04:53:37;5.50;;;2.40;;
71253;SDS011;59019;47.638;18.966;2023-07-31T04:56:03;4.83;;;2.40;;
71253;SDS011;59019;47.638;18.966;2023-07-31T04:58:28;5.00;;;2.40;;
71253;SDS011;59019;47.638;18.966;2023-07-31T05:00:54;5.45;;;2.35;;
71253;SDS011;59019;47.638;18.966;2023-07-31T05:03:20;6.93;;;2.37;;
71253;SDS011;59019;47.638;18.966;2023-07-31T05:05:46;6.00;;;2.27;;
71253;SDS011;59019;47.638;18.966;2023-07-31T05:08:12;5.63;;;2.38;;
71253;SDS011;59019;47.638;18.966;2023-07-31T05:10:38;5.77;;;2.27;;
71253;SDS011;59019;47.638;18.966;2023-07-31T05:13:03;5.03;;;2.20;;
71253;SDS011;59019;47.638;18.966;2023-07-31T05:15:29;5.97;;;2.20;;
71253;SDS011;59019;47.638;18.966;2023-07-31T05:17:54;6.63;;;2.03;;
71253;SDS011;59019;47.638;18.966;2023-07-31T05:20:20;5.23;;;2.20;;
71253;SDS011;59019;47.638;18.966;2023-07-31T05:22:46;4.30;;;2.10;;
71253;SDS011;59019;47.638;18.966;2023-07-31T05:25:11;4.95;;;2.10;;
71253;SDS011;59019;47.638;18.966;2023-07-31T05:27:37;4.53;;;1.70;;
71253;SDS011;59019;47.638;18.966;2023-07-31T05:30:02;4.00;;;1.90;;
71253;SDS011;59019;47.638;18.966;2023-07-31T05:32:28;4.53;;;1.70;;
71253;SDS011;59019;47.638;18.966;2023-07-31T05:34:54;4.90;;;1.90;;
71253;SDS011;59019;47.638;18.966;2023-07-31T05:37:20;4.73;;;1.80;;
71253;SDS011;59019;47.638;18.966;2023-07-31T05:39:45;6.07;;;1.90;;
71253;SDS011;59019;47.638;18.966;2023-07-31T05:42:11;5.30;;;2.10;;
71253;SDS011;59019;47.638;18.966;2023-07-31T05:44:36;4.60;;;1.80;;
71253;SDS011;59019;47.638;18.966;2023-07-31T05:47:02;4.57;;;1.90;;
71253;SDS011;59019;47.638;18.966;2023-07-31T05:49:29;5.67;;;1.83;;
71253;SDS011;59019;47.638;18.966;2023-07-31T05:51:57;3.88;;;1.60;;
71253;SDS011;59019;47.638;18.966;2023-07-31T05:54:22;4.67;;;1.97;;
71253;SDS011;59019;47.638;18.966;2023-07-31T05:56:48;5.40;;;1.90;;
71253;SDS011;59019;47.638;18.966;2023-07-31T05:59:13;5.75;;;1.80;;
71253;SDS011;59019;47.638;18.966;2023-07-31T06:01:39;5.38;;;1.85;;
71253;SDS011;59019;47.638;18.966;2023-07-31T06:04:04;5.33;;;1.93;;
71253;SDS011;59019;47.638;18.966;2023-07-31T06:06:30;6.35;;;2.00;;
71253;SDS011;59019;47.638;18.966;2023-07-31T06:08:56;4.75;;;1.77;;
71253;SDS011;59019;47.638;18.966;2023-07-31T06:11:22;4.97;;;1.60;;
71253;SDS011;59019;47.638;18.966;2023-07-31T06:13:48;4.05;;;1.70;;
71253;SDS011;59019;47.638;18.966;2023-07-31T06:16:15;4.70;;;1.80;;
71253;SDS011;59019;47.638;18.966;2023-07-31T06:18:42;4.78;;;1.80;;
71253;SDS011;59019;47.638;18.966;2023-07-31T06:21:07;5.30;;;1.70;;
71253;SDS011;59019;47.638;18.966;2023-07-31T06:23:36;4.97;;;1.70;;
71253;SDS011;59019;47.638;18.966;2023-07-31T06:26:02;6.13;;;1.83;;
71253;SDS011;59019;47.638;18.966;2023-07-31T06:28:28;6.87;;;1.70;;
71253;SDS011;59019;47.638;18.966;2023-07-31T06:30:54;4.90;;;1.80;;
71253;SDS011;59019;47.638;18.966;2023-07-31T06:33:20;4.32;;;1.73;;
71253;SDS011;59019;47.638;18.966;2023-07-31T06:35:46;3.93;;;1.70;;
71253;SDS011;59019;47.638;18.966;2023-07-31T06:38:33;5.13;;;1.80;;
71253;SDS011;59019;47.638;18.966;2023-07-31T06:40:59;5.50;;;1.80;;
71253;SDS011;59019;47.638;18.966;2023-07-31T06:43:24;4.00;;;1.60;;
71253;SDS011;59019;47.638;18.966;2023-07-31T06:45:50;5.47;;;1.90;;
71253;SDS011;59019;47.638;18.966;2023-07-31T06:48:17;6.57;;;1.70;;
71253;SDS011;59019;47.638;18.966;2023-07-31T06:50:43;4.70;;;1.80;;
71253;SDS011;59019;47.638;18.966;2023-07-31T06:53:09;6.00;;;1.80;;
71253;SDS011;59019;47.638;18.966;2023-07-31T06:55:34;4.93;;;1.70;;
71253;SDS011;59019;47.638;18.966;2023-07-31T06:58:00;4.60;;;1.63;;
71253;SDS011;59019;47.638;18.966;2023-07-31T07:00:26;6.43;;;1.70;;
71253;SDS011;59019;47.638;18.966;2023-07-31T07:02:52;4.90;;;1.60;;
71253;SDS011;59019;47.638;18.966;2023-07-31T07:05:18;5.03;;;1.80;;
71253;SDS011;59019;47.638;18.966;2023-07-31T07:07:44;5.67;;;1.93;;
71253;SDS011;59019;47.638;18.966;2023-07-31T07:10:09;4.38;;;1.65;;
71253;SDS011;59019;47.638;18.966;2023-07-31T07:12:35;4.57;;;1.60;;
71253;SDS011;59019;47.638;18.966;2023-07-31T07:15:01;4.70;;;1.90;;
71253;SDS011;59019;47.638;18.966;2023-07-31T07:17:27;5.68;;;2.03;;
71253;SDS011;59019;47.638;18.966;2023-07-31T07:19:56;4.05;;;1.65;;
71253;SDS011;59019;47.638;18.966;2023-07-31T07:22:22;4.13;;;1.77;;
71253;SDS011;59019;47.638;18.966;2023-07-31T07:24:47;6.10;;;1.60;;
71253;SDS011;59019;47.638;18.966;2023-07-31T07:27:13;5.53;;;1.80;;
71253;SDS011;59019;47.638;18.966;2023-07-31T07:29:38;4.73;;;1.73;;
71253;SDS011;59019;47.638;18.966;2023-07-31T07:32:04;6.32;;;1.75;;
71253;SDS011;59019;47.638;18.966;2023-07-31T07:34:30;4.20;;;1.80;;
71253;SDS011;59019;47.638;18.966;2023-07-31T07:36:56;5.00;;;1.87;;
71253;SDS011;59019;47.638;18.966;2023-07-31T07:39:21;5.72;;;1.83;;
71253;SDS011;59019;47.638;18.966;2023-07-31T07:41:47;4.30;;;1.50;;
71253;SDS011;59019;47.638;18.966;2023-07-31T07:44:13;5.22;;;1.80;;
71253;SDS011;59019;47.638;18.966;2023-07-31T07:46:39;5.00;;;1.90;;
71253;SDS011;59019;47.638;18.966;2023-07-31T07:49:05;6.47;;;1.90;;
71253;SDS011;59019;47.638;18.966;2023-07-31T07:51:31;4.70;;;1.70;;
71253;SDS011;59019;47.638;18.966;2023-07-31T07:53:59;4.78;;;1.90;;
71253;SDS011;59019;47.638;18.966;2023-07-31T07:56:25;4.63;;;1.60;;
71253;SDS011;59019;47.638;18.966;2023-07-31T07:58:51;5.10;;;1.77;;
71253;SDS011;59019;47.638;18.966;2023-07-31T08:01:17;4.55;;;1.60;;
71253;SDS011;59019;47.638;18.966;2023-07-31T08:03:43;4.03;;;1.83;;
71253;SDS011;59019;47.638;18.966;2023-07-31T08:06:08;5.73;;;1.50;;
71253;SDS011;59019;47.638;18.966;2023-07-31T08:08:35;4.38;;;1.40;;
71253;SDS011;59019;47.638;18.966;2023-07-31T08:11:01;4.72;;;1.60;;
71253;SDS011;59019;47.638;18.966;2023-07-31T08:13:26;5.10;;;1.80;;
71253;SDS011;59019;47.638;18.966;2023-07-31T08:15:52;4.50;;;1.60;;
71253;SDS011;59019;47.638;18.966;2023-07-31T08:18:18;6.13;;;1.70;;
71253;SDS011;59019;47.638;18.966;2023-07-31T08:20:44;4.40;;;1.63;;
71253;SDS011;59019;47.638;18.966;2023-07-31T08:23:09;4.63;;;1.70;;
71253;SDS011;59019;47.638;18.966;2023-07-31T08:25:35;6.70;;;1.80;;
71253;SDS011;59019;47.638;18.966;2023-07-31T08:28:01;4.72;;;1.70;;
71253;SDS011;59019;47.638;18.966;2023-07-31T08:30:30;5.47;;;1.98;;
71253;SDS011;59019;47.638;18.966;2023-07-31T08:32:56;4.33;;;1.70;;
71253;SDS011;59019;47.638;18.966;2023-07-31T08:35:22;4.97;;;1.70;;
71253;SDS011;59019;47.638;18.966;2023-07-31T08:37:49;5.77;;;1.70;;
71253;SDS011;59019;47.638;18.966;2023-07-31T08:40:14;3.85;;;1.70;;
71253;SDS011;59019;47.638;18.966;2023-07-31T08:42:46;5.97;;;1.90;;
71253;SDS011;59019;47.638;18.966;2023-07-31T08:45:16;5.90;;;1.90;;
71253;SDS011;59019;47.638;18.966;2023-07-31T08:47:44;4.78;;;1.88;;
71253;SDS011;59019;47.638;18.966;2023-07-31T08:50:14;5.32;;;1.80;;
71253;SDS011;59019;47.638;18.966;2023-07-31T08:52:41;4.70;;;1.90;;
71253;SDS011;59019;47.638;18.966;2023-07-31T08:55:07;4.20;;;1.70;;
71253;SDS011;59019;47.638;18.966;2023-07-31T08:57:34;4.95;;;1.90;;
71253;SDS011;59019;47.638;18.966;2023-07-31T09:00:01;5.57;;;1.80;;
71253;SDS011;59019;47.638;18.966;2023-07-31T09:02:34;4.95;;;1.60;;
71253;SDS011;59019;47.638;18.966;2023-07-31T09:05:07;5.40;;;1.80;;
71253;SDS011;59019;47.638;18.966;2023-07-31T09:07:34;5.10;;;1.90;;
71253;SDS011;59019;47.638;18.966;2023-07-31T09:10:01;6.28;;;1.83;;
71253;SDS011;59019;47.638;18.966;2023-07-31T09:12:27;5.22;;;1.80;;
71253;SDS011;59019;47.638;18.966;2023-07-31T09:14:53;5.85;;;1.85;;
71253;SDS011;59019;47.638;18.966;2023-07-31T09:17:28;5.37;;;1.70;;
71253;SDS011;59019;47.638;18.966;2023-07-31T09:19:56;5.15;;;1.60;;
71253;SDS011;59019;47.638;18.966;2023-07-31T09:22:31;6.10;;;1.90;;
71253;SDS011;59019;47.638;18.966;2023-07-31T09:25:05;4.43;;;1.80;;
71253;SDS011;59019;47.638;18.966;2023-07-31T09:28:13;4.30;;;1.60;;
71253;SDS011;59019;47.638;18.966;2023-07-31T09:30:49;5.00;;;1.90;;
71253;SDS011;59019;47.638;18.966;2023-07-31T09:33:17;4.60;;;1.90;;
71253;SDS011;59019;47.638;18.966;2023-07-31T09:35:44;5.03;;;1.60;;
71253;SDS011;59019;47.638;18.966;2023-07-31T09:38:10;6.47;;;1.80;;
71253;SDS011;59019;47.638;18.966;2023-07-31T09:40:43;4.90;;;1.73;;
71253;SDS011;59019;47.638;18.966;2023-07-31T09:43:11;4.35;;;1.77;;
71253;SDS011;59019;47.638;18.966;2023-07-31T09:45:41;5.03;;;1.80;;
71253;SDS011;59019;47.638;18.966;2023-07-31T09:48:08;5.30;;;1.60;;
71253;SDS011;59019;47.638;18.966;2023-07-31T09:50:36;6.35;;;1.70;;
71253;SDS011;59019;47.638;18.966;2023-07-31T09:53:03;6.22;;;1.65;;
71253;SDS011;59019;47.638;18.966;2023-07-31T09:55:29;4.60;;;1.60;;
71253;SDS011;59019;47.638;18.966;2023-07-31T09:57:55;5.35;;;1.73;;
71253;SDS011;59019;47.638;18.966;2023-07-31T10:00:22;5.95;;;1.70;;
71253;SDS011;59019;47.638;18.966;2023-07-31T10:02:52;5.30;;;1.60;;
71253;SDS011;59019;47.638;18.966;2023-07-31T10:05:19;5.45;;;1.60;;
71253;SDS011;59019;47.638;18.966;2023-07-31T10:07:51;5.30;;;1.70;;
71253;SDS011;59019;47.638;18.966;2023-07-31T10:10:20;4.75;;;1.80;;
71253;SDS011;59019;47.638;18.966;2023-07-31T10:12:48;6.50;;;1.60;;
71253;SDS011;59019;47.638;18.966;2023-07-31T10:15:14;5.40;;;1.70;;
71253;SDS011;59019;47.638;18.966;2023-07-31T10:17:41;5.20;;;1.73;;
71253;SDS011;59019;47.638;18.966;2023-07-31T10:20:07;5.10;;;1.73;;
71253;SDS011;59019;47.638;18.966;2023-07-31T10:22:34;4.67;;;1.70;;
71253;SDS011;59019;47.638;18.966;2023-07-31T10:25:00;6.07;;;1.90;;
71253;SDS011;59019;47.638;18.966;2023-07-31T10:27:26;5.40;;;1.70;;
71253;SDS011;59019;47.638;18.966;2023-07-31T10:29:52;5.57;;;1.90;;
71253;SDS011;59019;47.638;18.966;2023-07-31T10:32:20;5.20;;;1.80;;
71253;SDS011;59019;47.638;18.966;2023-07-31T10:34:48;4.68;;;1.60;;
71253;SDS011;59019;47.638;18.966;2023-07-31T10:37:58;5.90;;;1.70;;
71253;SDS011;59019;47.638;18.966;2023-07-31T10:40:06;5.70;;;1.90;;
71253;SDS011;59019;47.638;18.966;2023-07-31T10:42:37;4.68;;;1.67;;
71253;SDS011;59019;47.638;18.966;2023-07-31T10:45:14;5.30;;;1.65;;
71253;SDS011;59019;47.638;18.966;2023-07-31T10:48:00;6.93;;;1.80;;
71253;SDS011;59019;47.638;18.966;2023-07-31T10:50:27;6.80;;;1.73;;
71253;SDS011;59019;47.638;18.966;2023-07-31T10:52:54;7.05;;;2.33;;
71253;SDS011;59019;47.638;18.966;2023-07-31T10:57:49;5.83;;;2.03;;
71253;SDS011;59019;47.638;18.966;2023-07-31T11:00:22;4.65;;;1.60;;
71253;SDS011;59019;47.638;18.966;2023-07-31T11:08:21;6.63;;;2.13;;
71253;SDS011;59019;47.638;18.966;2023-07-31T11:10:51;5.50;;;1.90;;
71253;SDS011;59019;47.638;18.966;2023-07-31T11:13:33;4.83;;;1.70;;
71253;SDS011;59019;47.638;18.966;2023-07-31T11:16:26;4.05;;;1.42;;
71253;SDS011;59019;47.638;18.966;2023-07-31T11:18:52;5.80;;;1.55;;
71253;SDS011;59019;47.638;18.966;2023-07-31T11:21:20;4.20;;;1.70;;
71253;SDS011;59019;47.638;18.966;2023-07-31T11:23:47;6.18;;;1.55;;
71253;SDS011;59019;47.638;18.966;2023-07-31T11:26:14;4.38;;;1.60;;
71253;SDS011;59019;47.638;18.966;2023-07-31T11:28:40;5.30;;;1.80;;
71253;SDS011;59019;47.638;18.966;2023-07-31T11:31:08;4.45;;;1.60;;
71253;SDS011;59019;47.638;18.966;2023-07-31T11:33:35;4.90;;;1.58;;
71253;SDS011;59019;47.638;18.966;2023-07-31T11:36:00;5.40;;;1.70;;
71253;SDS011;59019;47.638;18.966;2023-07-31T11:38:30;4.75;;;1.88;;
71253;SDS011;59019;47.638;18.966;2023-07-31T11:40:58;5.53;;;1.70;;
71253;SDS011;59019;47.638;18.966;2023-07-31T11:43:27;5.20;;;1.60;;
71253;SDS011;59019;47.638;18.966;2023-07-31T11:45:56;4.45;;;1.60;;
71253;SDS011;59019;47.638;18.966;2023-07-31T11:48:23;5.35;;;1.60;;
71253;SDS011;59019;47.638;18.966;2023-07-31T11:50:52;6.22;;;1.60;;
71253;SDS011;59019;47.638;18.966;2023-07-31T11:53:47;4.70;;;1.30;;
71253;SDS011;59019;47.638;18.966;2023-07-31T11:56:13;5.53;;;1.48;;
71253;SDS011;59019;47.638;18.966;2023-07-31T11:58:41;4.50;;;1.55;;
71253;SDS011;59019;47.638;18.966;2023-07-31T12:01:09;4.30;;;1.53;;
71253;SDS011;59019;47.638;18.966;2023-07-31T12:03:37;4.78;;;1.70;;
71253;SDS011;59019;47.638;18.966;2023-07-31T12:06:03;5.00;;;1.60;;
71253;SDS011;59019;47.638;18.966;2023-07-31T12:08:29;5.30;;;1.80;;
71253;SDS011;59019;47.638;18.966;2023-07-31T12:10:55;4.83;;;1.60;;
71253;SDS011;59019;47.638;18.966;2023-07-31T12:13:28;4.70;;;1.50;;
71253;SDS011;59019;47.638;18.966;2023-07-31T12:15:56;5.57;;;1.85;;
71253;SDS011;59019;47.638;18.966;2023-07-31T12:18:25;4.88;;;1.60;;
71253;SDS011;59019;47.638;18.966;2023-07-31T12:20:55;4.57;;;1.60;;
71253;SDS011;59019;47.638;18.966;2023-07-31T12:23:27;4.53;;;1.60;;
71253;SDS011;59019;47.638;18.966;2023-07-31T12:26:03;4.87;;;1.60;;
71253;SDS011;59019;47.638;18.966;2023-07-31T12:28:34;5.00;;;1.73;;
71253;SDS011;59019;47.638;18.966;2023-07-31T12:31:21;5.20;;;1.77;;
71253;SDS011;59019;47.638;18.966;2023-07-31T12:33:48;4.95;;;1.67;;
71253;SDS011;59019;47.638;18.966;2023-07-31T12:36:19;5.00;;;1.57;;
71253;SDS011;59019;47.638;18.966;2023-07-31T12:38:46;5.90;;;1.80;;
71253;SDS011;59019;47.638;18.966;2023-07-31T12:41:11;5.30;;;1.67;;
71253;SDS011;59019;47.638;18.966;2023-07-31T12:43:38;5.10;;;1.67;;
71253;SDS011;59019;47.638;18.966;2023-07-31T12:46:05;6.68;;;1.80;;
71253;SDS011;59019;47.638;18.966;2023-07-31T12:48:32;5.35;;;1.60;;
71253;SDS011;59019;47.638;18.966;2023-07-31T12:50:58;4.30;;;1.60;;
71253;SDS011;59019;47.638;18.966;2023-07-31T12:53:24;5.72;;;1.60;;
71253;SDS011;59019;47.638;18.966;2023-07-31T12:55:50;4.70;;;1.60;;
71253;SDS011;59019;47.638;18.966;2023-07-31T12:58:15;4.77;;;1.60;;
71253;SDS011;59019;47.638;18.966;2023-07-31T13:00:41;6.60;;;1.60;;
71253;SDS011;59019;47.638;18.966;2023-07-31T13:03:07;4.40;;;1.50;;
71253;SDS011;59019;47.638;18.966;2023-07-31T13:05:33;5.55;;;1.60;;
71253;SDS011;59019;47.638;18.966;2023-07-31T13:07:59;5.10;;;1.60;;
71253;SDS011;59019;47.638;18.966;2023-07-31T13:10:24;4.88;;;1.50;;
71253;SDS011;59019;47.638;18.966;2023-07-31T13:12:51;5.93;;;1.42;;
71253;SDS011;59019;47.638;18.966;2023-07-31T13:15:17;4.57;;;1.60;;
71253;SDS011;59019;47.638;18.966;2023-07-31T13:17:48;4.60;;;1.70;;
71253;SDS011;59019;47.638;18.966;2023-07-31T13:20:14;4.87;;;1.60;;
71253;SDS011;59019;47.638;18.966;2023-07-31T13:22:39;4.40;;;1.60;;
71253;SDS011;59019;47.638;18.966;2023-07-31T13:25:05;4.93;;;1.70;;
71253;SDS011;59019;47.638;18.966;2023-07-31T13:27:31;4.55;;;1.73;;
71253;SDS011;59019;47.638;18.966;2023-07-31T13:29:57;4.00;;;1.60;;
71253;SDS011;59019;47.638;18.966;2023-07-31T13:32:22;4.50;;;1.80;;
71253;SDS011;59019;47.638;18.966;2023-07-31T13:34:48;4.97;;;1.80;;
71253;SDS011;59019;47.638;18.966;2023-07-31T13:37:14;4.63;;;1.70;;
71253;SDS011;59019;47.638;18.966;2023-07-31T13:39:40;4.82;;;1.50;;
71253;SDS011;59019;47.638;18.966;2023-07-31T13:42:07;5.50;;;1.80;;
71253;SDS011;59019;47.638;18.966;2023-07-31T13:44:36;4.97;;;1.60;;
71253;SDS011;59019;47.638;18.966;2023-07-31T13:47:05;4.28;;;1.55;;
71253;SDS011;59019;47.638;18.966;2023-07-31T13:49:31;3.80;;;1.60;;
71253;SDS011;59019;47.638;18.966;2023-07-31T13:51:57;4.17;;;1.43;;
71253;SDS011;59019;47.638;18.966;2023-07-31T13:54:23;4.35;;;1.52;;
71253;SDS011;59019;47.638;18.966;2023-07-31T13:56:49;4.20;;;1.60;;
71253;SDS011;59019;47.638;18.966;2023-07-31T13:59:15;4.70;;;1.60;;
71253;SDS011;59019;47.638;18.966;2023-07-31T14:01:41;4.20;;;1.60;;
71253;SDS011;59019;47.638;18.966;2023-07-31T14:04:08;4.55;;;1.60;;
71253;SDS011;59019;47.638;18.966;2023-07-31T14:06:33;4.40;;;1.50;;
71253;SDS011;59019;47.638;18.966;2023-07-31T14:08:59;5.10;;;1.50;;
71253;SDS011;59019;47.638;18.966;2023-07-31T14:11:25;4.90;;;1.60;;
71253;SDS011;59019;47.638;18.966;2023-07-31T14:13:54;5.07;;;1.60;;
71253;SDS011;59019;47.638;18.966;2023-07-31T14:16:52;4.72;;;1.50;;
71253;SDS011;59019;47.638;18.966;2023-07-31T14:19:18;5.27;;;1.57;;
71253;SDS011;59019;47.638;18.966;2023-07-31T14:21:43;5.03;;;1.47;;
71253;SDS011;59019;47.638;18.966;2023-07-31T14:24:09;5.30;;;1.63;;
71253;SDS011;59019;47.638;18.966;2023-07-31T14:26:34;4.95;;;1.60;;
71253;SDS011;59019;47.638;18.966;2023-07-31T14:29:00;4.20;;;1.50;;
71253;SDS011;59019;47.638;18.966;2023-07-31T14:31:25;5.00;;;1.60;;
71253;SDS011;59019;47.638;18.966;2023-07-31T14:33:51;5.90;;;1.80;;
71253;SDS011;59019;47.638;18.966;2023-07-31T14:36:16;6.57;;;1.50;;
71253;SDS011;59019;47.638;18.966;2023-07-31T14:38:43;4.90;;;1.60;;
71253;SDS011;59019;47.638;18.966;2023-07-31T14:41:12;5.15;;;1.63;;
71253;SDS011;59019;47.638;18.966;2023-07-31T14:43:38;6.15;;;1.80;;
71253;SDS011;59019;47.638;18.966;2023-07-31T14:46:04;5.90;;;1.80;;
71253;SDS011;59019;47.638;18.966;2023-07-31T14:48:30;4.55;;;1.65;;
71253;SDS011;59019;47.638;18.966;2023-07-31T14:50:56;5.10;;;1.70;;